Time;durP1;ratioP1;P1;durP2;ratioP2;P2;SDS_P1;SDS_P2;PMS_P1;PMS_P2;Temp;Humidity;BMP_temperature;BMP_pressure;BME280_temperature;BME280_humidity;BME280_pressure;Samples;Min_cycle;Max_cycle;Signal;HPM_P1;HPM_P2
2022/08/21 00:02:28;;;;;;;23.50;5.00;;;;;;;18.86;59.28;100421.93;1692578;82;21238;-57
2022/08/21 00:05:34;;;;;;;20.75;4.58;;;;;;;18.82;59.37;100432.63;1687140;82;21228;-58
2022/08/21 00:08:39;;;;;;;25.32;5.08;;;;;;;18.76;59.40;100414.66;1669177;83;21287;-57
2022/08/21 00:11:45;;;;;;;27.07;4.78;;;;;;;18.71;59.48;100418.12;1698173;82;21303;-57
2022/08/21 00:14:55;;;;;;;21.00;4.72;;;;;;;18.69;59.60;100416.14;1695645;82;21401;-58
2022/08/21 00:18:04;;;;;;;24.65;5.17;;;;;;;18.69;59.72;100417.52;1700667;83;21231;-58
2022/08/21 00:21:10;;;;;;;20.82;4.58;;;;;;;18.69;59.79;100413.36;1690250;82;21330;-57
2022/08/21 00:24:15;;;;;;;22.90;4.75;;;;;;;18.66;59.74;100411.57;1695895;82;21302;-58
2022/08/21 00:27:22;;;;;;;23.85;5.17;;;;;;;18.61;59.78;100415.03;1662623;82;21242;-58
2022/08/21 00:30:29;;;;;;;19.75;4.87;;;;;;;18.58;59.91;100411.86;1690232;83;21247;-58
2022/08/21 00:33:35;;;;;;;15.93;4.12;;;;;;;18.56;59.95;100409.31;1680038;83;21235;-57
2022/08/21 00:36:41;;;;;;;24.75;5.33;;;;;;;18.52;59.92;100414.98;1687862;83;21259;-57
2022/08/21 00:39:48;;;;;;;17.23;4.80;;;;;;;18.48;59.94;100414.28;1677002;82;21220;-56
2022/08/21 00:42:55;;;;;;;25.55;5.30;;;;;;;18.42;60.01;100413.28;1666906;80;21288;-57
2022/08/21 00:46:04;;;;;;;26.75;4.65;;;;;;;18.37;60.08;100397.83;1659567;83;21203;-56
2022/08/21 00:49:10;;;;;;;24.23;5.17;;;;;;;18.35;60.19;100397.72;1663822;83;21239;-59
2022/08/21 00:52:21;;;;;;;19.85;4.65;;;;;;;18.32;60.31;100401.80;1702341;83;21250;-57
2022/08/21 00:55:29;;;;;;;17.85;4.35;;;;;;;18.31;60.38;100402.89;1690072;84;21287;-56
2022/08/21 01:03:32;;;;;;;18.67;4.30;;;;;;;18.26;60.44;100393.02;1885633;76;22207;-57
2022/08/21 01:06:40;;;;;;;16.30;4.75;;;;;;;18.18;60.51;100387.74;1827316;78;21217;-57
2022/08/21 01:09:47;;;;;;;20.15;4.87;;;;;;;18.15;60.52;100389.58;1824832;78;21253;-57
2022/08/21 01:12:55;;;;;;;20.75;4.70;;;;;;;18.14;60.64;100393.41;1824839;78;21213;-57
2022/08/21 01:16:03;;;;;;;22.48;4.72;;;;;;;18.15;60.78;100389.58;1740576;81;21240;-57
2022/08/21 01:19:09;;;;;;;34.83;5.15;;;;;;;18.11;60.77;100386.92;1755429;81;21183;-57
2022/08/21 01:22:16;;;;;;;24.10;4.45;;;;;;;18.09;60.79;100388.24;1741595;82;21218;-58
2022/08/21 01:25:23;;;;;;;27.10;5.75;;;;;;;18.05;60.77;100380.91;1822000;78;21198;-57
2022/08/21 01:28:30;;;;;;;18.73;4.92;;;;;;;18.01;60.79;100381.06;1823335;78;21142;-57
2022/08/21 01:31:36;;;;;;;26.73;5.12;;;;;;;18.00;60.91;100379.34;1825144;78;21235;-58
2022/08/21 01:34:44;;;;;;;34.60;6.12;;;;;;;17.98;60.98;100373.20;1825364;78;21178;-57
2022/08/21 01:37:52;;;;;;;19.82;4.85;;;;;;;17.96;61.05;100380.88;1825462;78;21304;-57
2022/08/21 01:40:59;;;;;;;22.67;4.50;;;;;;;17.93;61.05;100367.48;1805764;78;21352;-57
2022/08/21 01:44:07;;;;;;;19.52;3.85;;;;;;;17.90;61.12;100366.54;1825391;78;21170;-57
2022/08/21 01:47:33;;;;;;;24.75;4.92;;;;;;;17.86;61.18;100367.52;1825571;78;21142;-57
2022/08/21 01:50:40;;;;;;;23.42;4.25;;;;;;;17.86;61.28;100370.28;1752355;81;21215;-57
2022/08/21 01:53:47;;;;;;;24.65;4.85;;;;;;;17.85;61.28;100369.13;1734846;81;21211;-57
2022/08/21 01:56:57;;;;;;;25.68;4.78;;;;;;;17.83;61.33;100378.19;1762292;81;21176;-58
2022/08/21 02:00:04;;;;;;;24.80;4.53;;;;;;;17.82;61.39;100383.42;1751880;81;21179;-56
2022/08/21 02:03:10;;;;;;;25.92;4.65;;;;;;;17.82;61.44;100391.73;1762353;81;21151;-57
2022/08/21 02:06:22;;;;;;;21.02;3.98;;;;;;;17.83;61.48;100389.27;1751735;81;21188;-57
2022/08/21 02:09:30;;;;;;;25.17;4.60;;;;;;;17.81;61.51;100387.24;1752380;81;21207;-58
2022/08/21 02:12:38;;;;;;;25.70;4.67;;;;;;;17.82;61.58;100384.81;1762338;81;21211;-58
2022/08/21 02:15:45;;;;;;;22.25;4.47;;;;;;;17.83;61.72;100390.65;1751481;81;21176;-57
2022/08/21 02:18:50;;;;;;;30.55;5.53;;;;;;;17.86;61.81;100394.35;1751134;81;21913;-57
2022/08/21 02:21:57;;;;;;;20.88;4.22;;;;;;;17.85;61.82;100380.20;1761682;81;21171;-58
2022/08/21 02:25:04;;;;;;;23.10;3.90;;;;;;;17.82;61.81;100386.19;1751616;81;21188;-58
2022/08/21 02:28:13;;;;;;;27.90;4.45;;;;;;;17.80;61.86;100395.25;1751704;81;21215;-56
2022/08/21 02:31:18;;;;;;;25.43;4.17;;;;;;;17.80;61.88;100388.33;1761709;81;21183;-56
2022/08/21 02:34:28;;;;;;;28.67;4.45;;;;;;;17.76;61.87;100393.98;1739480;81;21840;-59
2022/08/21 02:37:33;;;;;;;31.20;4.40;;;;;;;17.76;61.97;100393.45;1749899;81;21195;-57
2022/08/21 02:40:41;;;;;;;26.25;4.45;;;;;;;17.75;62.04;100395.06;1750698;82;21171;-56
2022/08/21 02:43:48;;;;;;;24.75;5.33;;;;;;;17.76;62.12;100396.75;1751280;81;21176;-58
2022/08/21 02:46:54;;;;;;;23.95;4.83;;;;;;;17.73;62.09;100384.73;1761482;81;21218;-58
2022/08/21 02:50:01;;;;;;;25.15;4.80;;;;;;;17.70;62.18;100390.72;1762022;81;21153;-58
2022/08/21 02:53:07;;;;;;;26.23;5.25;;;;;;;17.69;62.19;100398.20;1776073;81;21208;-57
2022/08/21 02:56:16;;;;;;;24.05;4.83;;;;;;;17.66;62.18;100397.78;1762232;80;21243;-56
2022/08/21 02:59:25;;;;;;;31.77;3.95;;;;;;;17.64;62.26;100405.45;1728455;82;21247;-57
2022/08/21 03:02:31;;;;;;;29.02;4.50;;;;;;;17.64;62.38;100409.08;1751627;82;21362;-56
2022/08/21 03:05:38;;;;;;;22.15;4.35;;;;;;;17.67;62.46;100408.64;1752093;81;21204;-58
2022/08/21 03:08:46;;;;;;;26.40;4.75;;;;;;;17.70;62.50;100410.10;1751782;82;21180;-58
2022/08/21 03:11:54;;;;;;;31.00;4.80;;;;;;;17.72;62.55;100412.98;1751728;82;21208;-58
2022/08/21 03:15:02;;;;;;;24.27;4.35;;;;;;;17.70;62.55;100410.95;1752937;81;21247;-57
2022/08/21 03:18:09;;;;;;;22.95;4.50;;;;;;;17.70;62.57;100413.73;1751800;82;21196;-58
2022/08/21 03:21:15;;;;;;;25.17;5.05;;;;;;;17.71;62.63;100414.03;1751874;82;21358;-55
2022/08/21 03:24:21;;;;;;;29.45;4.58;;;;;;;17.74;62.67;100416.35;1751707;81;21203;-56
2022/08/21 03:27:27;;;;;;;24.82;5.00;;;;;;;17.77;62.73;100417.30;1751590;82;21236;-56
2022/08/21 03:30:33;;;;;;;23.67;4.12;;;;;;;17.82;62.79;100418.87;1749489;82;21212;-55
2022/08/21 03:33:40;;;;;;;21.50;4.62;;;;;;;17.85;62.85;100420.36;1700047;83;21406;-56
2022/08/21 03:36:48;;;;;;;25.35;4.95;;;;;;;17.91;62.90;100429.16;1721993;83;21338;-56
2022/08/21 03:39:55;;;;;;;32.55;4.55;;;;;;;17.97;62.90;100431.56;1721669;83;21204;-56
2022/08/21 03:43:03;;;;;;;23.20;4.08;;;;;;;17.97;62.85;100431.03;1721871;83;21196;-58
2022/08/21 03:46:11;;;;;;;30.10;4.72;;;;;;;17.97;62.81;100426.88;1721989;83;21394;-56
2022/08/21 03:49:19;;;;;;;25.37;4.47;;;;;;;17.96;62.80;100428.49;1721680;83;21200;-57
2022/08/21 03:52:26;;;;;;;24.87;4.67;;;;;;;17.96;62.92;100423.81;1744979;82;21184;-57
2022/08/21 03:55:33;;;;;;;22.45;4.28;;;;;;;18.01;62.94;100429.54;1744836;82;21489;-57
2022/08/21 03:58:39;;;;;;;24.47;4.75;;;;;;;18.04;62.96;100429.09;1744953;81;21306;-57
2022/08/21 04:01:45;;;;;;;24.92;4.33;;;;;;;18.05;63.02;100425.23;1726889;82;21386;-57
2022/08/21 04:04:52;;;;;;;28.65;4.17;;;;;;;18.10;63.11;100425.42;1743986;82;21215;-56
2022/08/21 04:08:01;;;;;;;23.65;4.30;;;;;;;18.12;63.10;100432.98;1726164;83;21230;-57
2022/08/21 04:11:10;;;;;;;20.77;3.62;;;;;;;18.18;63.16;100436.23;1742958;82;21258;-57
2022/08/21 04:14:18;;;;;;;26.33;4.67;;;;;;;18.25;63.20;100432.03;1744853;82;21208;-57
2022/08/21 04:17:26;;;;;;;20.55;4.55;;;;;;;18.29;63.21;100427.73;1744895;82;21196;-57
2022/08/21 04:20:27;;;;;;;28.95;5.53;;;;;;;18.35;63.29;100436.00;1744777;81;21188;-58
2022/08/21 04:23:33;;;;;;;20.70;3.87;;;;;;;18.45;63.36;100432.23;1744845;82;21160;-56
2022/08/21 04:26:41;;;;;;;28.00;4.50;;;;;;;18.54;63.39;100435.02;1744827;82;21318;-59
2022/08/21 04:29:48;;;;;;;26.85;3.98;;;;;;;18.59;63.27;100439.36;1744760;82;21231;-57
2022/08/21 04:32:56;;;;;;;34.83;5.30;;;;;;;18.64;63.26;100435.91;1744835;82;21172;-57
2022/08/21 04:36:03;;;;;;;26.33;4.62;;;;;;;18.71;63.29;100429.22;1756355;81;21228;-58
2022/08/21 04:39:13;;;;;;;21.65;4.28;;;;;;;18.78;63.25;100431.40;1775425;81;21153;-56
2022/08/21 04:42:22;;;;;;;34.08;5.30;;;;;;;18.85;63.25;100432.73;1759250;80;21141;-57
2022/08/21 04:45:36;;;;;;;30.62;4.80;;;;;;;18.90;63.27;100435.67;1773800;81;21181;-58
2022/08/21 04:48:43;;;;;;;30.95;4.95;;;;;;;18.96;63.23;100428.64;1775298;81;21719;-58
2022/08/21 04:51:48;;;;;;;22.67;4.47;;;;;;;19.01;63.23;100430.75;1763961;80;21197;-58
2022/08/21 04:54:54;;;;;;;37.67;5.08;;;;;;;19.07;63.28;100426.53;1775001;81;21220;-58
2022/08/21 04:57:59;;;;;;;32.03;5.22;;;;;;;19.16;63.34;100427.91;1752126;80;21306;-58
2022/08/21 05:01:06;;;;;;;27.15;4.72;;;;;;;19.24;63.32;100437.33;1740291;82;21228;-57
2022/08/21 05:04:14;;;;;;;24.05;4.90;;;;;;;19.32;63.28;100432.03;1740128;81;21268;-56
2022/08/21 05:07:26;;;;;;;32.58;5.22;;;;;;;19.38;63.24;100437.22;1747756;81;21166;-57
2022/08/21 05:10:33;;;;;;;34.25;5.83;;;;;;;19.44;63.26;100442.66;1726089;83;21229;-57
2022/08/21 05:13:45;;;;;;;34.75;5.22;;;;;;;19.52;63.27;100444.30;1709643;84;21411;-58
2022/08/21 05:16:50;;;;;;;32.73;4.83;;;;;;;19.59;63.30;100440.88;1770772;81;21184;-57
2022/08/21 05:19:57;;;;;;;36.85;4.85;;;;;;;19.67;63.27;100447.52;1763553;81;21229;-58
2022/08/21 05:23:07;;;;;;;28.07;4.53;;;;;;;19.73;63.21;100450.74;1761477;81;21316;-55
2022/08/21 05:26:18;;;;;;;38.17;5.95;;;;;;;19.77;63.22;100448.67;1688102;83;21205;-57
2022/08/21 05:29:25;;;;;;;37.80;5.62;;;;;;;19.86;63.25;100449.19;1743832;82;21304;-59
2022/08/21 05:32:33;;;;;;;29.25;5.10;;;;;;;19.92;63.22;100447.71;1756720;81;21201;-58
2022/08/21 05:35:41;;;;;;;29.07;5.03;;;;;;;20.01;63.22;100442.69;1761146;81;21200;-58
2022/08/21 05:38:48;;;;;;;34.78;5.60;;;;;;;20.05;63.18;100441.11;1758129;81;21224;-57
2022/08/21 05:41:54;;;;;;;31.00;4.33;;;;;;;20.10;63.15;100444.89;1750821;81;22038;-57
2022/08/21 05:45:01;;;;;;;36.25;5.30;;;;;;;20.15;63.14;100444.22;1737276;81;21284;-57
2022/08/21 05:48:15;;;;;;;33.08;5.75;;;;;;;20.22;63.21;100447.19;1761449;80;21185;-56
2022/08/21 05:51:24;;;;;;;28.02;4.78;;;;;;;20.30;63.19;100440.44;1782953;80;21168;-56
2022/08/21 05:54:31;;;;;;;29.07;4.67;;;;;;;20.37;63.10;100438.42;1766555;79;21181;-57
2022/08/21 05:57:41;;;;;;;32.42;4.65;;;;;;;20.43;63.06;100440.23;1739234;81;21758;-58
2022/08/21 06:00:52;;;;;;;34.53;5.83;;;;;;;20.51;63.12;100439.89;1683377;84;21348;-58
2022/08/21 06:04:04;;;;;;;28.17;4.83;;;;;;;20.58;63.04;100440.65;1760806;81;21641;-57
2022/08/21 06:07:11;;;;;;;39.27;4.83;;;;;;;20.67;63.09;100441.98;1761017;81;21205;-58
2022/08/21 06:10:19;;;;;;;26.40;4.75;;;;;;;20.79;63.13;100447.86;1759655;81;21193;-57
2022/08/21 06:13:28;;;;;;;25.25;4.72;;;;;;;20.89;63.06;100440.84;1755482;80;21197;-58
2022/08/21 06:16:36;;;;;;;30.72;4.90;;;;;;;20.97;62.98;100448.34;1750420;81;21448;-57
2022/08/21 06:19:47;;;;;;;24.65;4.95;;;;;;;21.04;62.91;100452.39;1747239;80;21892;-56
2022/08/21 06:22:53;;;;;;;32.25;5.12;;;;;;;21.13;62.91;100441.19;1746450;81;21221;-59
2022/08/21 06:26:00;;;;;;;31.12;5.37;;;;;;;21.21;62.87;100436.10;1746828;81;21296;-58
2022/08/21 06:29:10;;;;;;;31.87;5.30;;;;;;;21.28;62.85;100438.77;1745886;82;21181;-57
2022/08/21 06:32:18;;;;;;;28.23;5.33;;;;;;;21.34;62.76;100435.85;1746741;81;21209;-58
2022/08/21 06:35:24;;;;;;;30.77;5.37;;;;;;;21.42;62.76;100427.66;1748545;81;21272;-57
2022/08/21 06:38:32;;;;;;;25.20;4.75;;;;;;;21.50;62.79;100432.28;1749026;81;21339;-58
2022/08/21 06:41:37;;;;;;;29.55;5.67;;;;;;;21.58;62.77;100426.90;1747059;81;21261;-56
2022/08/21 06:44:47;;;;;;;25.82;5.10;;;;;;;21.66;62.78;100423.73;1699201;84;21207;-56
2022/08/21 06:47:53;;;;;;;23.57;4.55;;;;;;;21.67;62.67;100417.91;1747712;81;21244;-57
2022/08/21 06:50:59;;;;;;;36.10;5.80;;;;;;;21.71;62.63;100410.73;1747877;81;21233;-56
2022/08/21 06:54:08;;;;;;;38.02;5.75;;;;;;;21.80;62.68;100413.45;1755698;81;21268;-57
2022/08/21 06:57:15;;;;;;;33.78;4.97;;;;;;;21.80;62.46;100409.27;1742434;81;21338;-57
2022/08/21 07:00:24;;;;;;;33.28;4.92;;;;;;;21.77;62.42;100410.33;1741811;82;21192;-56
2022/08/21 07:03:36;;;;;;;32.35;4.90;;;;;;;21.79;62.44;100409.52;1742170;82;21148;-57
2022/08/21 07:06:43;;;;;;;28.83;4.92;;;;;;;21.85;62.50;100409.38;1742228;82;21322;-57
2022/08/21 07:09:50;;;;;;;27.02;5.08;;;;;;;21.93;62.52;100406.19;1774378;79;21181;-58
2022/08/21 07:12:58;;;;;;;40.08;5.42;;;;;;;22.04;62.56;100409.47;1742045;82;21219;-57
2022/08/21 07:16:06;;;;;;;38.08;5.60;;;;;;;22.14;62.48;100413.00;1741303;82;21294;-57
2022/08/21 07:19:13;;;;;;;32.80;5.15;;;;;;;22.23;62.48;100402.30;1764002;79;21585;-57
2022/08/21 07:22:19;;;;;;;38.02;6.47;;;;;;;22.35;62.53;100397.48;1746603;82;21168;-58
2022/08/21 07:25:26;;;;;;;28.10;5.58;;;;;;;22.46;62.50;100410.52;1748872;82;21767;-59
2022/08/21 07:28:35;;;;;;;31.97;5.78;;;;;;;22.58;62.55;100402.96;1748986;82;21251;-58
2022/08/21 07:31:42;;;;;;;32.85;5.30;;;;;;;22.67;62.45;100401.43;1735060;80;21192;-57
2022/08/21 07:34:49;;;;;;;31.87;5.58;;;;;;;22.71;62.20;100402.05;1749721;82;21163;-58
2022/08/21 07:37:59;;;;;;;35.65;6.00;;;;;;;22.75;62.10;100402.40;1749146;82;21752;-58
2022/08/21 07:41:04;;;;;;;33.53;6.00;;;;;;;22.79;62.11;100400.77;1749453;82;21360;-58
2022/08/21 07:44:13;;;;;;;41.13;5.70;;;;;;;22.80;62.00;100408.06;1754193;79;21308;-57
2022/08/21 07:47:20;;;;;;;36.65;6.40;;;;;;;22.84;62.06;100396.67;1806590;79;21197;-57
2022/08/21 07:50:28;;;;;;;41.35;5.65;;;;;;;22.92;62.13;100390.66;1805814;79;21236;-57
2022/08/21 07:53:36;;;;;;;34.60;5.87;;;;;;;22.99;62.08;100389.94;1796418;78;21260;-57
2022/08/21 07:56:41;;;;;;;36.65;6.20;;;;;;;23.07;62.08;100392.30;1753094;80;21215;-57
2022/08/21 07:59:48;;;;;;;34.95;5.08;;;;;;;23.15;62.05;100390.47;1763405;81;21616;-58
2022/08/21 08:02:57;;;;;;;32.45;6.25;;;;;;;23.22;62.01;100387.77;1769378;80;21736;-57
2022/08/21 08:06:05;;;;;;;37.58;6.30;;;;;;;23.32;61.96;100387.09;1769162;81;21379;-57
2022/08/21 08:09:12;;;;;;;36.33;6.67;;;;;;;23.39;61.88;100382.14;1762262;80;21203;-58
2022/08/21 08:12:28;;;;;;;37.40;5.55;;;;;;;23.51;61.90;100384.28;1761080;81;21728;-57
2022/08/21 08:15:36;;;;;;;32.40;5.28;;;;;;;23.61;61.76;100393.63;1760750;81;21324;-60
2022/08/21 08:18:44;;;;;;;37.38;5.55;;;;;;;23.76;61.69;100389.32;1761458;80;21207;-58
2022/08/21 08:21:49;;;;;;;31.37;5.50;;;;;;;23.90;61.58;100381.67;1746141;81;21214;-58
2022/08/21 08:24:56;;;;;;;33.25;5.55;;;;;;;24.09;61.54;100376.58;1772288;81;21396;-58
2022/08/21 08:28:04;;;;;;;47.45;6.90;;;;;;;24.27;61.40;100373.41;1743820;81;21203;-57
2022/08/21 08:31:12;;;;;;;36.58;6.45;;;;;;;24.43;61.26;100376.65;1771979;80;21216;-56
2022/08/21 08:34:22;;;;;;;42.25;6.42;;;;;;;24.51;61.02;100374.77;1751559;81;21181;-57
2022/08/21 08:37:30;;;;;;;40.65;6.25;;;;;;;24.55;60.85;100382.35;1771937;81;21216;-56
2022/08/21 08:40:48;;;;;;;35.75;5.92;;;;;;;24.59;60.82;100379.30;1766924;81;21189;-56
2022/08/21 08:44:02;;;;;;;38.15;6.92;;;;;;;24.63;60.67;100380.46;1765149;81;21165;-57
2022/08/21 08:47:12;;;;;;;41.28;5.55;;;;;;;24.69;60.66;100371.02;1758477;81;21169;-57
2022/08/21 08:50:37;;;;;;;33.67;5.53;;;;;;;24.78;60.71;100362.97;1740432;82;21250;-57
2022/08/21 08:53:57;;;;;;;38.05;6.03;;;;;;;24.86;60.75;100362.47;1749437;81;21133;-57
2022/08/21 08:57:04;;;;;;;34.25;6.25;;;;;;;24.90;60.60;100353.26;1747766;78;21349;-57
2022/08/21 09:00:16;;;;;;;37.67;6.95;;;;;;;24.91;60.51;100347.92;1700705;83;21730;-57
2022/08/21 09:03:24;;;;;;;34.25;7.30;;;;;;;24.95;60.55;100351.89;1722923;81;22148;-57
2022/08/21 09:06:35;;;;;;;38.92;7.10;;;;;;;25.00;60.44;100347.73;1750473;81;21322;-58
2022/08/21 09:10:07;;;;;;;44.30;6.45;;;;;;;25.07;60.47;100356.44;1749793;82;21264;-58
2022/08/21 09:13:36;;;;;;;34.43;6.72;;;;;;;25.08;60.39;100353.38;1731735;80;21188;-57
2022/08/21 09:17:00;;;;;;;38.20;6.67;;;;;;;25.15;60.43;100357.33;1725498;80;21258;-58
2022/08/21 09:20:34;;;;;;;29.90;6.62;;;;;;;25.23;60.42;100354.02;1738285;80;21761;-57
2022/08/21 09:24:10;;;;;;;42.95;7.45;;;;;;;25.29;60.35;100350.94;1736381;81;21208;-59
2022/08/21 09:27:22;;;;;;;36.83;7.62;;;;;;;25.30;60.23;100350.39;1741797;80;21595;-57
2022/08/21 09:30:37;;;;;;;35.17;7.17;;;;;;;25.37;60.23;100349.63;1723082;82;21264;-57
2022/08/21 09:33:45;;;;;;;42.30;7.50;;;;;;;25.44;60.18;100344.60;1720890;83;21218;-56
2022/08/21 09:36:58;;;;;;;33.45;7.00;;;;;;;25.48;60.14;100344.36;1745854;82;21291;-56
2022/08/21 09:40:06;;;;;;;41.42;7.20;;;;;;;25.57;60.22;100340.75;1748165;82;21606;-56
2022/08/21 09:43:29;;;;;;;41.20;7.75;;;;;;;25.68;60.09;100341.61;1738579;81;21232;-56
2022/08/21 09:46:34;;;;;;;49.40;7.53;;;;;;;25.75;60.03;100351.45;1725229;81;21268;-57
2022/08/21 09:49:44;;;;;;;45.48;7.53;;;;;;;25.82;59.88;100355.40;1747287;82;21227;-57
2022/08/21 09:52:59;;;;;;;47.17;7.08;;;;;;;25.84;59.76;100350.36;1721616;81;21247;-55
2022/08/21 09:59:41;;;;;;;40.98;6.72;;;;;;;25.96;59.81;100345.33;1789732;80;21172;-57
2022/08/21 10:02:47;;;;;;;40.63;6.90;;;;;;;26.05;59.85;100352.14;1763570;80;21184;-57
2022/08/21 10:06:08;;;;;;;46.95;8.13;;;;;;;26.14;59.85;100358.87;1724350;82;21479;-58
2022/08/21 10:09:21;;;;;;;35.78;7.42;;;;;;;26.24;59.75;100353.29;1683290;84;21221;-58
2022/08/21 10:12:32;;;;;;;38.05;6.33;;;;;;;26.33;59.63;100351.61;1732454;81;21323;-57
2022/08/21 10:16:01;;;;;;;37.23;7.03;;;;;;;26.37;59.43;100345.70;1755730;80;21702;-56
2022/08/21 10:19:40;;;;;;;47.62;7.75;;;;;;;26.44;59.42;100340.11;1770299;80;21562;-57
2022/08/21 10:22:59;;;;;;;38.48;7.97;;;;;;;26.51;59.36;100340.38;1764880;80;21552;-57
2022/08/21 10:26:32;;;;;;;48.25;8.95;;;;;;;26.61;59.40;100330.55;1761873;80;21199;-56
2022/08/21 10:29:44;;;;;;;37.23;8.33;;;;;;;26.69;59.29;100330.84;1776921;80;21678;-55
2022/08/21 10:33:14;;;;;;;40.55;7.67;;;;;;;26.72;59.23;100327.47;1745779;82;21176;-56
2022/08/21 10:36:30;;;;;;;44.65;8.80;;;;;;;26.87;59.31;100323.80;1759185;80;21220;-57
2022/08/21 10:39:53;;;;;;;45.50;8.38;;;;;;;26.96;59.19;100319.27;1753487;80;21201;-56
2022/08/21 10:43:48;;;;;;;47.80;9.15;;;;;;;27.10;59.19;100313.36;1745798;82;21175;-56
2022/08/21 10:47:00;;;;;;;46.42;8.78;;;;;;;27.25;59.14;100304.30;1759015;80;21220;-56
2022/08/21 10:50:39;;;;;;;43.73;8.75;;;;;;;27.41;59.04;100305.96;1774129;79;21149;-57
2022/08/21 10:54:09;;;;;;;44.50;7.95;;;;;;;27.47;58.81;100294.10;1769411;80;21189;-57
2022/08/21 10:57:28;;;;;;;54.47;9.57;;;;;;;27.55;58.76;100292.09;1764739;81;21310;-57
2022/08/21 11:00:44;;;;;;;52.65;9.63;;;;;;;27.72;58.77;100299.59;1720898;82;21216;-59
2022/08/21 11:04:19;;;;;;;51.55;8.38;;;;;;;27.93;58.83;100291.89;1669953;86;21263;-58
2022/08/21 11:07:44;;;;;;;48.40;9.00;;;;;;;28.16;58.79;100286.95;1722557;82;21376;-58
2022/08/21 11:10:59;;;;;;;48.83;9.68;;;;;;;28.37;58.71;100289.89;1726512;82;21595;-57
2022/08/21 11:14:13;;;;;;;45.00;8.43;;;;;;;28.56;58.49;100288.05;1726760;83;21332;-56
2022/08/21 11:17:26;;;;;;;50.73;8.55;;;;;;;28.69;58.23;100279.73;1726670;83;21772;-59
2022/08/21 11:21:07;;;;;;;51.15;9.28;;;;;;;28.73;58.01;100282.81;1726991;83;21219;-57
2022/08/21 11:24:44;;;;;;;53.92;9.48;;;;;;;28.86;58.01;100279.30;1727367;83;21229;-56
2022/08/21 11:28:15;;;;;;;44.77;8.38;;;;;;;29.08;57.95;100274.00;1727252;82;21213;-57
2022/08/21 11:31:53;;;;;;;47.88;7.67;;;;;;;29.23;57.74;100268.16;1726140;83;21260;-57
2022/08/21 11:35:27;;;;;;;44.08;7.90;;;;;;;29.40;57.47;100260.62;1727142;83;21329;-56
2022/08/21 11:38:39;;;;;;;48.63;8.60;;;;;;;29.50;57.30;100269.77;1721858;81;21233;-57
2022/08/21 11:41:50;;;;;;;38.00;7.40;;;;;;;29.53;56.94;100259.84;1763173;81;21347;-57
2022/08/21 11:45:20;;;;;;;48.45;7.15;;;;;;;29.48;56.75;100262.17;1734918;82;21204;-56
2022/08/21 11:48:51;;;;;;;47.60;8.68;;;;;;;29.47;56.58;100250.63;1735314;82;21153;-57
2022/08/21 11:52:33;;;;;;;65.42;9.30;;;;;;;29.45;56.27;100261.97;1723208;81;21151;-57
2022/08/21 11:56:11;;;;;;;65.65;9.25;;;;;;;29.43;56.22;100248.73;1707432;82;21330;-56
2022/08/21 11:59:48;;;;;;;58.70;8.30;;;;;;;29.61;56.19;100257.20;1734656;82;21697;-57
2022/08/21 12:03:00;;;;;;;53.98;8.83;;;;;;;29.76;55.97;100259.00;1709750;84;21225;-56
2022/08/21 12:06:13;;;;;;;66.55;9.50;;;;;;;29.82;55.79;100240.83;1746951;81;21283;-58
2022/08/21 12:09:41;;;;;;;58.40;9.20;;;;;;;29.88;55.57;100241.86;1738345;82;21163;-56
2022/08/21 12:12:50;;;;;;;52.05;8.60;;;;;;;29.90;55.44;100237.32;1738929;82;21177;-57
2022/08/21 12:15:59;;;;;;;67.92;9.03;;;;;;;29.99;55.38;100240.56;1757479;81;21737;-57
2022/08/21 12:19:14;;;;;;;68.05;8.53;;;;;;;30.04;55.08;100243.30;1697795;84;21206;-58
2022/08/21 12:22:22;;;;;;;60.15;8.85;;;;;;;30.06;55.02;100238.20;1764861;81;21205;-56
2022/08/21 12:25:28;;;;;;;62.48;9.78;;;;;;;30.12;54.84;100240.34;1732998;82;21767;-57
2022/08/21 12:28:37;;;;;;;60.58;9.23;;;;;;;30.14;54.57;100239.47;1735227;82;21361;-57
2022/08/21 12:31:44;;;;;;;62.45;8.35;;;;;;;30.08;54.35;100238.70;1758793;81;21216;-58
2022/08/21 12:35:26;;;;;;;56.58;7.75;;;;;;;30.08;54.22;100231.64;1716743;82;21331;-57
2022/08/21 12:38:38;;;;;;;52.48;7.35;;;;;;;30.08;54.10;100233.05;1727539;80;21189;-57
2022/08/21 12:41:58;;;;;;;62.60;8.03;;;;;;;30.15;53.90;100219.95;1681592;85;21824;-57
2022/08/21 12:45:08;;;;;;;58.52;8.05;;;;;;;30.13;53.79;100231.56;1727555;82;21753;-57
2022/08/21 12:48:35;;;;;;;54.23;8.28;;;;;;;30.09;53.57;100240.41;1727344;82;21201;-58
2022/08/21 12:52:17;;;;;;;59.45;8.40;;;;;;;29.91;53.15;100235.60;1726736;83;21371;-59
2022/08/21 12:55:25;;;;;;;69.75;7.03;;;;;;;29.77;53.01;100241.75;1713919;82;21256;-59
2022/08/21 12:58:31;;;;;;;45.88;6.97;;;;;;;29.61;52.68;100247.88;1727930;83;21197;-58
2022/08/21 13:01:54;;;;;;;57.80;7.90;;;;;;;29.61;52.68;100247.88;1728775;81;21264;-58
2022/08/21 13:05:01;;;;;;;48.05;6.30;;;;;;;29.59;52.75;100248.78;1734987;82;21299;-58
2022/08/21 13:08:14;;;;;;;53.87;7.92;;;;;;;29.59;52.75;100248.78;1709907;83;21550;-58
2022/08/21 13:11:24;;;;;;;58.92;7.33;;;;;;;29.55;52.53;100251.37;1709938;83;21244;-57
2022/08/21 13:14:47;;;;;;;51.40;7.30;;;;;;;29.52;52.44;100247.75;1727976;82;21193;-58
2022/08/21 13:18:01;;;;;;;52.67;8.25;;;;;;;29.52;51.89;100260.44;1727513;83;21710;-59
2022/08/21 13:21:21;;;;;;;62.40;8.08;;;;;;;29.52;51.89;100260.44;1710126;83;21224;-58
2022/08/21 13:24:32;;;;;;;65.03;7.55;;;;;;;29.48;51.94;100263.58;1727548;82;21201;-58
2022/08/21 13:27:41;;;;;;;54.42;8.00;;;;;;;29.43;51.81;100260.83;1734912;82;21386;-57
2022/08/21 13:31:01;;;;;;;52.65;7.97;;;;;;;29.42;51.75;100266.21;1709485;83;21227;-59
2022/08/21 13:34:10;;;;;;;46.90;6.55;;;;;;;29.42;51.66;100267.63;1727349;83;21208;-58
2022/08/21 13:37:18;;;;;;;52.67;6.65;;;;;;;29.45;51.10;100265.60;1690296;83;21252;-57
2022/08/21 13:40:28;;;;;;;42.88;6.40;;;;;;;29.45;51.10;100265.60;1698586;82;21197;-57
2022/08/21 13:43:41;;;;;;;50.73;6.40;;;;;;;29.45;51.26;100267.61;1734947;82;21220;-56
2022/08/21 13:46:49;;;;;;;31.33;5.05;;;;;;;29.46;51.17;100268.72;1735417;82;21196;-58
2022/08/21 13:49:59;;;;;;;41.95;5.30;;;;;;;29.41;51.13;100264.55;1734856;82;21216;-57
2022/08/21 13:53:13;;;;;;;31.05;4.87;;;;;;;29.39;50.83;100268.23;1710461;84;21229;-57
2022/08/21 13:56:39;;;;;;;37.25;5.17;;;;;;;29.35;50.75;100272.81;1734292;82;21236;-58
2022/08/21 13:59:46;;;;;;;36.58;5.53;;;;;;;29.32;50.60;100273.98;1734627;82;21236;-58
2022/08/21 14:02:59;;;;;;;25.88;4.22;;;;;;;29.23;50.49;100272.38;1710953;84;21171;-57
2022/08/21 14:06:07;;;;;;;19.45;4.35;;;;;;;29.16;50.40;100274.16;1732775;81;21833;-58
2022/08/21 14:09:22;;;;;;;25.52;4.33;;;;;;;29.11;50.26;100271.98;1761814;81;21220;-56
2022/08/21 14:12:59;;;;;;;26.02;4.00;;;;;;;29.06;50.16;100274.83;1735105;82;21212;-58
2022/08/21 14:16:08;;;;;;;20.62;3.72;;;;;;;29.04;50.05;100277.95;1689599;85;21243;-57
2022/08/21 14:19:20;;;;;;;22.00;4.15;;;;;;;28.97;49.82;100278.04;1745810;81;21220;-58
2022/08/21 14:22:44;;;;;;;28.27;3.70;;;;;;;28.96;49.73;100280.01;1737994;81;21184;-59
2022/08/21 14:25:52;;;;;;;22.65;4.53;;;;;;;28.97;49.65;100276.04;1747768;81;21251;-60
2022/08/21 14:28:52;;;;;;;18.52;3.42;;;;;;;28.98;49.49;100279.70;1733699;82;21188;-58
2022/08/21 14:32:08;;;;;;;18.80;3.85;;;;;;;28.97;49.40;100280.86;1734249;82;21260;-58
2022/08/21 14:35:17;;;;;;;22.25;3.75;;;;;;;28.91;49.23;100279.20;1779905;80;21197;-58
2022/08/21 14:38:27;;;;;;;21.73;3.95;;;;;;;28.85;49.19;100285.48;1795554;80;21686;-57
2022/08/21 14:41:39;;;;;;;17.17;3.05;;;;;;;28.83;49.16;100280.71;1790294;78;21165;-58
2022/08/21 14:44:44;;;;;;;23.80;4.58;;;;;;;28.84;49.07;100281.56;1788522;80;21341;-56
2022/08/21 14:47:51;;;;;;;18.55;2.80;;;;;;;28.81;48.92;100276.52;1749476;80;21308;-56
2022/08/21 14:50:58;;;;;;;22.60;3.72;;;;;;;28.76;48.81;100281.65;1697194;81;22271;-56